sensor_id;sensor_type;location;lat;lon;timestamp;P1;durP1;ratioP1;P2;durP2;ratioP2
15256;SDS011;7731;50.720;6.912;2022-12-19T00:01:50;38.53;;;19.43;;
15256;SDS011;7731;50.720;6.912;2022-12-19T00:04:21;30.73;;;16.43;;
15256;SDS011;7731;50.720;6.912;2022-12-19T00:06:51;38.60;;;21.10;;
15256;SDS011;7731;50.720;6.912;2022-12-19T00:09:22;42.80;;;22.70;;
15256;SDS011;7731;50.720;6.912;2022-12-19T00:11:52;41.60;;;21.73;;
15256;SDS011;7731;50.720;6.912;2022-12-19T00:14:25;41.50;;;21.77;;
15256;SDS011;7731;50.720;6.912;2022-12-19T00:16:56;40.23;;;22.17;;
15256;SDS011;7731;50.720;6.912;2022-12-19T00:19:29;43.67;;;22.70;;
15256;SDS011;7731;50.720;6.912;2022-12-19T00:22:00;44.47;;;24.77;;
15256;SDS011;7731;50.720;6.912;2022-12-19T00:24:36;38.43;;;22.67;;
15256;SDS011;7731;50.720;6.912;2022-12-19T00:27:09;47.97;;;23.43;;
15256;SDS011;7731;50.720;6.912;2022-12-19T00:29:45;42.97;;;22.60;;
15256;SDS011;7731;50.720;6.912;2022-12-19T00:32:16;40.87;;;21.63;;
15256;SDS011;7731;50.720;6.912;2022-12-19T00:34:46;47.90;;;24.83;;
15256;SDS011;7731;50.720;6.912;2022-12-19T00:37:16;48.20;;;23.60;;
15256;SDS011;7731;50.720;6.912;2022-12-19T00:39:46;39.97;;;22.37;;
15256;SDS011;7731;50.720;6.912;2022-12-19T00:42:17;42.93;;;22.90;;
15256;SDS011;7731;50.720;6.912;2022-12-19T00:44:51;44.90;;;23.63;;
15256;SDS011;7731;50.720;6.912;2022-12-19T00:47:31;44.63;;;22.17;;
15256;SDS011;7731;50.720;6.912;2022-12-19T00:50:03;41.10;;;24.07;;
15256;SDS011;7731;50.720;6.912;2022-12-19T00:52:35;47.13;;;21.50;;
15256;SDS011;7731;50.720;6.912;2022-12-19T00:55:06;44.03;;;22.50;;
15256;SDS011;7731;50.720;6.912;2022-12-19T00:57:45;47.70;;;22.53;;
15256;SDS011;7731;50.720;6.912;2022-12-19T01:00:26;47.80;;;24.00;;
15256;SDS011;7731;50.720;6.912;2022-12-19T01:02:57;43.17;;;23.07;;
15256;SDS011;7731;50.720;6.912;2022-12-19T01:05:30;46.73;;;24.90;;
15256;SDS011;7731;50.720;6.912;2022-12-19T01:08:02;39.83;;;23.90;;
15256;SDS011;7731;50.720;6.912;2022-12-19T01:10:32;38.87;;;22.20;;
15256;SDS011;7731;50.720;6.912;2022-12-19T01:13:03;46.53;;;22.73;;
15256;SDS011;7731;50.720;6.912;2022-12-19T01:15:37;45.10;;;23.80;;
15256;SDS011;7731;50.720;6.912;2022-12-19T01:18:09;39.47;;;21.67;;
15256;SDS011;7731;50.720;6.912;2022-12-19T01:20:41;39.17;;;22.00;;
15256;SDS011;7731;50.720;6.912;2022-12-19T01:23:15;43.63;;;22.27;;
15256;SDS011;7731;50.720;6.912;2022-12-19T01:25:47;42.60;;;24.63;;
15256;SDS011;7731;50.720;6.912;2022-12-19T01:28:24;45.43;;;24.23;;
15256;SDS011;7731;50.720;6.912;2022-12-19T01:31:03;45.10;;;22.87;;
15256;SDS011;7731;50.720;6.912;2022-12-19T01:33:39;49.53;;;23.90;;
15256;SDS011;7731;50.720;6.912;2022-12-19T01:36:11;41.30;;;21.47;;
15256;SDS011;7731;50.720;6.912;2022-12-19T01:38:43;42.83;;;22.73;;
15256;SDS011;7731;50.720;6.912;2022-12-19T01:41:13;44.70;;;22.87;;
15256;SDS011;7731;50.720;6.912;2022-12-19T01:43:53;43.27;;;23.13;;
15256;SDS011;7731;50.720;6.912;2022-12-19T01:46:31;43.33;;;21.90;;
15256;SDS011;7731;50.720;6.912;2022-12-19T01:49:11;48.50;;;22.77;;
15256;SDS011;7731;50.720;6.912;2022-12-19T01:51:51;42.73;;;21.67;;
15256;SDS011;7731;50.720;6.912;2022-12-19T01:54:25;41.47;;;21.80;;
15256;SDS011;7731;50.720;6.912;2022-12-19T01:57:05;40.13;;;21.57;;
15256;SDS011;7731;50.720;6.912;2022-12-19T01:59:39;40.33;;;22.20;;
15256;SDS011;7731;50.720;6.912;2022-12-19T02:02:19;44.47;;;22.23;;
15256;SDS011;7731;50.720;6.912;2022-12-19T02:04:59;47.37;;;22.57;;
15256;SDS011;7731;50.720;6.912;2022-12-19T02:07:31;39.80;;;20.00;;
15256;SDS011;7731;50.720;6.912;2022-12-19T02:10:04;40.90;;;20.83;;
15256;SDS011;7731;50.720;6.912;2022-12-19T02:12:36;41.90;;;22.60;;
15256;SDS011;7731;50.720;6.912;2022-12-19T02:15:11;40.50;;;23.20;;
15256;SDS011;7731;50.720;6.912;2022-12-19T02:17:53;40.07;;;23.00;;
15256;SDS011;7731;50.720;6.912;2022-12-19T02:20:55;51.00;;;24.37;;
15256;SDS011;7731;50.720;6.912;2022-12-19T02:24:01;44.87;;;23.07;;
15256;SDS011;7731;50.720;6.912;2022-12-19T02:27:12;43.80;;;21.83;;
15256;SDS011;7731;50.720;6.912;2022-12-19T02:30:13;37.57;;;20.47;;
15256;SDS011;7731;50.720;6.912;2022-12-19T02:32:55;41.93;;;22.80;;
15256;SDS011;7731;50.720;6.912;2022-12-19T02:35:34;42.50;;;21.73;;
15256;SDS011;7731;50.720;6.912;2022-12-19T02:38:24;44.23;;;21.77;;
15256;SDS011;7731;50.720;6.912;2022-12-19T02:41:06;41.87;;;21.77;;
15256;SDS011;7731;50.720;6.912;2022-12-19T02:43:45;41.07;;;21.80;;
15256;SDS011;7731;50.720;6.912;2022-12-19T02:46:24;40.77;;;21.13;;
15256;SDS011;7731;50.720;6.912;2022-12-19T02:48:59;38.23;;;20.70;;
15256;SDS011;7731;50.720;6.912;2022-12-19T02:51:30;40.40;;;21.40;;
15256;SDS011;7731;50.720;6.912;2022-12-19T02:54:00;37.57;;;20.40;;
15256;SDS011;7731;50.720;6.912;2022-12-19T02:56:37;34.83;;;19.63;;
15256;SDS011;7731;50.720;6.912;2022-12-19T02:59:32;34.83;;;19.47;;
15256;SDS011;7731;50.720;6.912;2022-12-19T03:02:23;37.00;;;19.80;;
15256;SDS011;7731;50.720;6.912;2022-12-19T03:05:29;34.97;;;19.00;;
15256;SDS011;7731;50.720;6.912;2022-12-19T03:08:15;31.90;;;16.53;;
15256;SDS011;7731;50.720;6.912;2022-12-19T03:10:56;34.43;;;18.60;;
15256;SDS011;7731;50.720;6.912;2022-12-19T03:13:31;32.30;;;17.83;;
15256;SDS011;7731;50.720;6.912;2022-12-19T03:16:08;32.67;;;17.67;;
15256;SDS011;7731;50.720;6.912;2022-12-19T03:18:40;30.27;;;17.03;;
15256;SDS011;7731;50.720;6.912;2022-12-19T03:21:16;29.10;;;17.23;;
15256;SDS011;7731;50.720;6.912;2022-12-19T03:23:52;29.37;;;16.77;;
15256;SDS011;7731;50.720;6.912;2022-12-19T03:26:26;30.97;;;17.40;;
15256;SDS011;7731;50.720;6.912;2022-12-19T03:29:03;25.00;;;14.57;;
15256;SDS011;7731;50.720;6.912;2022-12-19T03:31:43;32.37;;;17.80;;
15256;SDS011;7731;50.720;6.912;2022-12-19T03:34:15;27.53;;;16.10;;
15256;SDS011;7731;50.720;6.912;2022-12-19T03:36:54;30.23;;;16.60;;
15256;SDS011;7731;50.720;6.912;2022-12-19T03:39:29;28.27;;;15.63;;
15256;SDS011;7731;50.720;6.912;2022-12-19T03:42:02;26.03;;;17.00;;
15256;SDS011;7731;50.720;6.912;2022-12-19T03:44:48;29.80;;;17.77;;
15256;SDS011;7731;50.720;6.912;2022-12-19T03:47:22;30.17;;;17.30;;
15256;SDS011;7731;50.720;6.912;2022-12-19T03:49:59;26.40;;;15.70;;
15256;SDS011;7731;50.720;6.912;2022-12-19T03:52:42;33.47;;;18.60;;
15256;SDS011;7731;50.720;6.912;2022-12-19T03:55:24;30.43;;;16.23;;
15256;SDS011;7731;50.720;6.912;2022-12-19T03:58:04;31.87;;;16.57;;
15256;SDS011;7731;50.720;6.912;2022-12-19T04:00:41;30.47;;;15.37;;
15256;SDS011;7731;50.720;6.912;2022-12-19T04:03:17;33.33;;;17.47;;
15256;SDS011;7731;50.720;6.912;2022-12-19T04:05:49;33.13;;;17.30;;
15256;SDS011;7731;50.720;6.912;2022-12-19T04:08:24;29.57;;;17.20;;
15256;SDS011;7731;50.720;6.912;2022-12-19T04:11:00;32.93;;;17.63;;
15256;SDS011;7731;50.720;6.912;2022-12-19T04:13:36;28.87;;;16.00;;
15256;SDS011;7731;50.720;6.912;2022-12-19T04:16:17;31.23;;;16.33;;
15256;SDS011;7731;50.720;6.912;2022-12-19T04:18:58;28.60;;;16.83;;
15256;SDS011;7731;50.720;6.912;2022-12-19T04:21:41;29.30;;;16.97;;
15256;SDS011;7731;50.720;6.912;2022-12-19T04:24:24;29.90;;;15.90;;
15256;SDS011;7731;50.720;6.912;2022-12-19T04:27:02;26.00;;;15.23;;
15256;SDS011;7731;50.720;6.912;2022-12-19T04:29:38;25.50;;;16.20;;
15256;SDS011;7731;50.720;6.912;2022-12-19T04:32:10;27.63;;;16.77;;
15256;SDS011;7731;50.720;6.912;2022-12-19T04:34:42;26.03;;;14.43;;
15256;SDS011;7731;50.720;6.912;2022-12-19T04:37:12;27.33;;;16.17;;
15256;SDS011;7731;50.720;6.912;2022-12-19T04:39:45;26.47;;;15.90;;
15256;SDS011;7731;50.720;6.912;2022-12-19T04:42:15;28.50;;;16.00;;
15256;SDS011;7731;50.720;6.912;2022-12-19T04:44:45;24.73;;;15.83;;
15256;SDS011;7731;50.720;6.912;2022-12-19T04:47:15;27.07;;;15.87;;
15256;SDS011;7731;50.720;6.912;2022-12-19T04:49:45;27.87;;;16.30;;
15256;SDS011;7731;50.720;6.912;2022-12-19T04:52:15;26.20;;;15.40;;
15256;SDS011;7731;50.720;6.912;2022-12-19T04:54:48;26.20;;;15.87;;
15256;SDS011;7731;50.720;6.912;2022-12-19T04:57:18;25.30;;;15.53;;
15256;SDS011;7731;50.720;6.912;2022-12-19T04:59:48;24.03;;;15.60;;
15256;SDS011;7731;50.720;6.912;2022-12-19T05:02:19;25.50;;;15.67;;
15256;SDS011;7731;50.720;6.912;2022-12-19T05:04:51;26.87;;;15.57;;
15256;SDS011;7731;50.720;6.912;2022-12-19T05:07:22;22.97;;;14.27;;
15256;SDS011;7731;50.720;6.912;2022-12-19T05:09:54;24.30;;;14.90;;
15256;SDS011;7731;50.720;6.912;2022-12-19T05:12:27;26.57;;;14.57;;
15256;SDS011;7731;50.720;6.912;2022-12-19T05:14:58;21.00;;;13.83;;
15256;SDS011;7731;50.720;6.912;2022-12-19T05:17:28;23.43;;;14.60;;
15256;SDS011;7731;50.720;6.912;2022-12-19T05:19:59;20.67;;;13.27;;
15256;SDS011;7731;50.720;6.912;2022-12-19T05:22:29;19.87;;;12.73;;
15256;SDS011;7731;50.720;6.912;2022-12-19T05:25:02;22.77;;;13.93;;
15256;SDS011;7731;50.720;6.912;2022-12-19T05:27:34;20.47;;;13.37;;
15256;SDS011;7731;50.720;6.912;2022-12-19T05:30:07;19.17;;;13.77;;
15256;SDS011;7731;50.720;6.912;2022-12-19T05:32:39;21.47;;;13.37;;
15256;SDS011;7731;50.720;6.912;2022-12-19T05:35:09;18.43;;;12.73;;
15256;SDS011;7731;50.720;6.912;2022-12-19T05:37:39;19.70;;;12.77;;
15256;SDS011;7731;50.720;6.912;2022-12-19T05:40:12;19.00;;;13.43;;
15256;SDS011;7731;50.720;6.912;2022-12-19T05:42:42;15.73;;;12.20;;
15256;SDS011;7731;50.720;6.912;2022-12-19T05:45:12;17.23;;;13.00;;
15256;SDS011;7731;50.720;6.912;2022-12-19T05:47:43;16.60;;;12.53;;
15256;SDS011;7731;50.720;6.912;2022-12-19T05:50:14;18.33;;;12.80;;
15256;SDS011;7731;50.720;6.912;2022-12-19T05:52:45;17.27;;;12.70;;
15256;SDS011;7731;50.720;6.912;2022-12-19T05:55:18;15.57;;;12.00;;
15256;SDS011;7731;50.720;6.912;2022-12-19T05:57:48;17.37;;;12.23;;
15256;SDS011;7731;50.720;6.912;2022-12-19T06:00:18;16.07;;;11.77;;
15256;SDS011;7731;50.720;6.912;2022-12-19T06:02:49;14.93;;;12.77;;
15256;SDS011;7731;50.720;6.912;2022-12-19T06:05:20;17.27;;;12.77;;
15256;SDS011;7731;50.720;6.912;2022-12-19T06:07:50;16.83;;;12.07;;
15256;SDS011;7731;50.720;6.912;2022-12-19T06:10:23;17.00;;;11.57;;
15256;SDS011;7731;50.720;6.912;2022-12-19T06:12:53;15.20;;;11.03;;
15256;SDS011;7731;50.720;6.912;2022-12-19T06:15:23;16.47;;;12.10;;
15256;SDS011;7731;50.720;6.912;2022-12-19T06:17:53;17.70;;;11.80;;
15256;SDS011;7731;50.720;6.912;2022-12-19T06:20:24;15.93;;;10.93;;
15256;SDS011;7731;50.720;6.912;2022-12-19T06:22:54;16.33;;;11.40;;
15256;SDS011;7731;50.720;6.912;2022-12-19T06:25:27;15.53;;;12.10;;
15256;SDS011;7731;50.720;6.912;2022-12-19T06:27:57;16.07;;;12.30;;
15256;SDS011;7731;50.720;6.912;2022-12-19T06:30:28;17.43;;;12.47;;
15256;SDS011;7731;50.720;6.912;2022-12-19T06:32:59;16.60;;;12.43;;
15256;SDS011;7731;50.720;6.912;2022-12-19T06:35:29;15.20;;;12.17;;
15256;SDS011;7731;50.720;6.912;2022-12-19T06:37:59;16.33;;;11.83;;
15256;SDS011;7731;50.720;6.912;2022-12-19T06:40:32;16.07;;;10.97;;
15256;SDS011;7731;50.720;6.912;2022-12-19T06:43:14;16.80;;;10.23;;
15256;SDS011;7731;50.720;6.912;2022-12-19T06:45:44;13.27;;;9.93;;
15256;SDS011;7731;50.720;6.912;2022-12-19T06:48:15;14.47;;;10.80;;
15256;SDS011;7731;50.720;6.912;2022-12-19T06:50:45;16.63;;;12.00;;
15256;SDS011;7731;50.720;6.912;2022-12-19T06:53:15;15.67;;;12.17;;
15256;SDS011;7731;50.720;6.912;2022-12-19T06:55:52;18.77;;;12.80;;
15256;SDS011;7731;50.720;6.912;2022-12-19T06:58:26;19.00;;;13.40;;
15256;SDS011;7731;50.720;6.912;2022-12-19T07:00:57;19.10;;;13.87;;
15256;SDS011;7731;50.720;6.912;2022-12-19T07:03:28;19.30;;;13.63;;
15256;SDS011;7731;50.720;6.912;2022-12-19T07:06:04;18.07;;;12.53;;
15256;SDS011;7731;50.720;6.912;2022-12-19T07:08:36;20.67;;;14.33;;
15256;SDS011;7731;50.720;6.912;2022-12-19T07:11:09;22.27;;;14.33;;
15256;SDS011;7731;50.720;6.912;2022-12-19T07:13:39;22.17;;;14.10;;
15256;SDS011;7731;50.720;6.912;2022-12-19T07:16:09;20.73;;;15.17;;
15256;SDS011;7731;50.720;6.912;2022-12-19T07:18:40;20.73;;;14.77;;
15256;SDS011;7731;50.720;6.912;2022-12-19T07:21:11;20.63;;;13.47;;
15256;SDS011;7731;50.720;6.912;2022-12-19T07:23:42;18.00;;;12.33;;
15256;SDS011;7731;50.720;6.912;2022-12-19T07:26:15;21.97;;;13.57;;
15256;SDS011;7731;50.720;6.912;2022-12-19T07:28:46;19.30;;;13.03;;
15256;SDS011;7731;50.720;6.912;2022-12-19T07:31:18;17.63;;;12.73;;
15256;SDS011;7731;50.720;6.912;2022-12-19T07:33:50;20.90;;;13.47;;
15256;SDS011;7731;50.720;6.912;2022-12-19T07:36:20;18.97;;;13.60;;
15256;SDS011;7731;50.720;6.912;2022-12-19T07:38:50;18.30;;;12.27;;
15256;SDS011;7731;50.720;6.912;2022-12-19T07:41:23;21.40;;;13.37;;
15256;SDS011;7731;50.720;6.912;2022-12-19T07:43:53;21.70;;;12.17;;
15256;SDS011;7731;50.720;6.912;2022-12-19T07:46:26;16.03;;;11.37;;
15256;SDS011;7731;50.720;6.912;2022-12-19T07:49:03;15.63;;;11.63;;
15256;SDS011;7731;50.720;6.912;2022-12-19T07:51:33;15.50;;;11.47;;
15256;SDS011;7731;50.720;6.912;2022-12-19T07:54:03;18.57;;;12.57;;
15256;SDS011;7731;50.720;6.912;2022-12-19T07:56:36;20.70;;;11.70;;
15256;SDS011;7731;50.720;6.912;2022-12-19T07:59:07;17.40;;;11.23;;
15256;SDS011;7731;50.720;6.912;2022-12-19T08:01:39;23.77;;;13.33;;
15256;SDS011;7731;50.720;6.912;2022-12-19T08:04:10;18.73;;;11.27;;
15256;SDS011;7731;50.720;6.912;2022-12-19T08:06:41;15.77;;;9.63;;
15256;SDS011;7731;50.720;6.912;2022-12-19T08:09:12;17.73;;;11.20;;
15256;SDS011;7731;50.720;6.912;2022-12-19T08:11:45;12.27;;;9.00;;
15256;SDS011;7731;50.720;6.912;2022-12-19T08:14:15;15.27;;;9.20;;
15256;SDS011;7731;50.720;6.912;2022-12-19T08:16:45;12.57;;;8.50;;
15256;SDS011;7731;50.720;6.912;2022-12-19T08:19:36;11.27;;;8.40;;
15256;SDS011;7731;50.720;6.912;2022-12-19T08:22:06;14.03;;;8.33;;
15256;SDS011;7731;50.720;6.912;2022-12-19T08:24:37;11.73;;;7.77;;
15256;SDS011;7731;50.720;6.912;2022-12-19T08:27:10;11.23;;;7.60;;
15256;SDS011;7731;50.720;6.912;2022-12-19T08:29:40;9.03;;;7.17;;
15256;SDS011;7731;50.720;6.912;2022-12-19T08:32:10;16.33;;;8.30;;
15256;SDS011;7731;50.720;6.912;2022-12-19T08:34:46;14.77;;;8.30;;
15256;SDS011;7731;50.720;6.912;2022-12-19T08:37:17;11.47;;;8.20;;
15256;SDS011;7731;50.720;6.912;2022-12-19T08:39:48;13.10;;;9.10;;
15256;SDS011;7731;50.720;6.912;2022-12-19T08:42:21;11.03;;;7.93;;
15256;SDS011;7731;50.720;6.912;2022-12-19T08:44:52;13.23;;;10.53;;
15256;SDS011;7731;50.720;6.912;2022-12-19T08:47:22;14.10;;;10.80;;
15256;SDS011;7731;50.720;6.912;2022-12-19T08:49:53;12.93;;;9.80;;
15256;SDS011;7731;50.720;6.912;2022-12-19T08:52:23;15.87;;;11.97;;
15256;SDS011;7731;50.720;6.912;2022-12-19T08:54:53;17.00;;;12.30;;
15256;SDS011;7731;50.720;6.912;2022-12-19T08:57:25;17.57;;;13.30;;
15256;SDS011;7731;50.720;6.912;2022-12-19T08:59:56;18.23;;;13.63;;
15256;SDS011;7731;50.720;6.912;2022-12-19T09:02:27;18.13;;;12.70;;
15256;SDS011;7731;50.720;6.912;2022-12-19T09:04:58;16.77;;;12.53;;
15256;SDS011;7731;50.720;6.912;2022-12-19T09:07:48;18.77;;;12.20;;
15256;SDS011;7731;50.720;6.912;2022-12-19T09:10:18;17.77;;;12.77;;
15256;SDS011;7731;50.720;6.912;2022-12-19T09:12:51;18.40;;;13.17;;
15256;SDS011;7731;50.720;6.912;2022-12-19T09:15:23;17.80;;;14.00;;
15256;SDS011;7731;50.720;6.912;2022-12-19T09:17:53;18.17;;;13.50;;
15256;SDS011;7731;50.720;6.912;2022-12-19T09:20:24;18.07;;;12.80;;
15256;SDS011;7731;50.720;6.912;2022-12-19T09:22:54;21.60;;;13.70;;
15256;SDS011;7731;50.720;6.912;2022-12-19T09:25:25;16.83;;;12.03;;
15256;SDS011;7731;50.720;6.912;2022-12-19T09:27:58;20.20;;;12.47;;
15256;SDS011;7731;50.720;6.912;2022-12-19T09:30:53;15.63;;;10.53;;
15256;SDS011;7731;50.720;6.912;2022-12-19T09:33:25;13.23;;;10.13;;
15256;SDS011;7731;50.720;6.912;2022-12-19T09:35:57;14.63;;;10.70;;
15256;SDS011;7731;50.720;6.912;2022-12-19T09:38:29;14.70;;;10.63;;
15256;SDS011;7731;50.720;6.912;2022-12-19T09:41:12;14.60;;;10.13;;
15256;SDS011;7731;50.720;6.912;2022-12-19T09:44:38;13.60;;;10.37;;
15256;SDS011;7731;50.720;6.912;2022-12-19T09:47:47;12.60;;;9.73;;
15256;SDS011;7731;50.720;6.912;2022-12-19T09:50:22;15.10;;;10.30;;
15256;SDS011;7731;50.720;6.912;2022-12-19T09:53:11;17.03;;;10.80;;
15256;SDS011;7731;50.720;6.912;2022-12-19T09:55:49;15.13;;;10.00;;
15256;SDS011;7731;50.720;6.912;2022-12-19T09:58:25;17.60;;;9.87;;
15256;SDS011;7731;50.720;6.912;2022-12-19T10:01:11;14.73;;;10.30;;
15256;SDS011;7731;50.720;6.912;2022-12-19T10:03:51;18.53;;;9.83;;
15256;SDS011;7731;50.720;6.912;2022-12-19T10:06:33;15.53;;;9.50;;
15256;SDS011;7731;50.720;6.912;2022-12-19T10:09:25;13.90;;;9.37;;
15256;SDS011;7731;50.720;6.912;2022-12-19T10:15:41;15.73;;;9.93;;
15256;SDS011;7731;50.720;6.912;2022-12-19T10:18:32;15.00;;;10.07;;
15256;SDS011;7731;50.720;6.912;2022-12-19T10:27:41;15.10;;;9.57;;
15256;SDS011;7731;50.720;6.912;2022-12-19T10:30:25;14.60;;;10.70;;
15256;SDS011;7731;50.720;6.912;2022-12-19T10:33:01;13.40;;;10.33;;
15256;SDS011;7731;50.720;6.912;2022-12-19T10:35:50;17.67;;;11.90;;
15256;SDS011;7731;50.720;6.912;2022-12-19T10:38:30;16.97;;;12.70;;
15256;SDS011;7731;50.720;6.912;2022-12-19T10:41:18;20.47;;;13.27;;
15256;SDS011;7731;50.720;6.912;2022-12-19T10:43:55;24.60;;;16.03;;
15256;SDS011;7731;50.720;6.912;2022-12-19T10:46:35;20.73;;;15.47;;
15256;SDS011;7731;50.720;6.912;2022-12-19T10:49:13;30.90;;;21.77;;
15256;SDS011;7731;50.720;6.912;2022-12-19T10:51:55;21.27;;;14.47;;
15256;SDS011;7731;50.720;6.912;2022-12-19T10:57:22;16.73;;;12.77;;
15256;SDS011;7731;50.720;6.912;2022-12-19T10:59:56;18.97;;;14.33;;
15256;SDS011;7731;50.720;6.912;2022-12-19T11:02:32;23.90;;;15.67;;
15256;SDS011;7731;50.720;6.912;2022-12-19T11:05:23;20.97;;;16.93;;
15256;SDS011;7731;50.720;6.912;2022-12-19T11:08:01;23.13;;;15.63;;
15256;SDS011;7731;50.720;6.912;2022-12-19T11:10:44;20.57;;;14.20;;
15256;SDS011;7731;50.720;6.912;2022-12-19T11:13:42;20.77;;;13.63;;
15256;SDS011;7731;50.720;6.912;2022-12-19T11:16:36;21.53;;;14.27;;
15256;SDS011;7731;50.720;6.912;2022-12-19T11:19:28;18.63;;;11.70;;
15256;SDS011;7731;50.720;6.912;2022-12-19T11:22:21;42.90;;;30.70;;
15256;SDS011;7731;50.720;6.912;2022-12-19T11:25:19;20.50;;;14.23;;
15256;SDS011;7731;50.720;6.912;2022-12-19T11:28:21;19.53;;;13.30;;
15256;SDS011;7731;50.720;6.912;2022-12-19T11:31:19;20.20;;;13.30;;
15256;SDS011;7731;50.720;6.912;2022-12-19T11:34:15;21.37;;;14.47;;
15256;SDS011;7731;50.720;6.912;2022-12-19T11:36:50;22.30;;;15.40;;
15256;SDS011;7731;50.720;6.912;2022-12-19T11:39:31;24.43;;;17.37;;
15256;SDS011;7731;50.720;6.912;2022-12-19T11:42:20;27.63;;;19.43;;
15256;SDS011;7731;50.720;6.912;2022-12-19T11:44:59;27.47;;;17.40;;
15256;SDS011;7731;50.720;6.912;2022-12-19T11:47:43;26.87;;;19.30;;
15256;SDS011;7731;50.720;6.912;2022-12-19T11:50:24;20.27;;;14.23;;
15256;SDS011;7731;50.720;6.912;2022-12-19T11:53:01;45.20;;;28.67;;
15256;SDS011;7731;50.720;6.912;2022-12-19T11:55:46;24.10;;;16.10;;
15256;SDS011;7731;50.720;6.912;2022-12-19T11:58:25;21.37;;;15.40;;
15256;SDS011;7731;50.720;6.912;2022-12-19T12:01:01;21.00;;;14.13;;
15256;SDS011;7731;50.720;6.912;2022-12-19T12:03:58;24.93;;;15.23;;
15256;SDS011;7731;50.720;6.912;2022-12-19T12:06:47;21.70;;;14.93;;
15256;SDS011;7731;50.720;6.912;2022-12-19T12:09:25;21.93;;;16.67;;
15256;SDS011;7731;50.720;6.912;2022-12-19T12:12:25;37.23;;;27.67;;
15256;SDS011;7731;50.720;6.912;2022-12-19T12:18:46;22.80;;;14.63;;
15256;SDS011;7731;50.720;6.912;2022-12-19T12:21:54;20.10;;;15.20;;
15256;SDS011;7731;50.720;6.912;2022-12-19T12:25:04;20.57;;;14.40;;
15256;SDS011;7731;50.720;6.912;2022-12-19T12:28:33;21.80;;;14.10;;
15256;SDS011;7731;50.720;6.912;2022-12-19T12:31:44;17.90;;;11.70;;
15256;SDS011;7731;50.720;6.912;2022-12-19T12:34:55;19.43;;;11.73;;
15256;SDS011;7731;50.720;6.912;2022-12-19T12:38:06;21.33;;;13.93;;
15256;SDS011;7731;50.720;6.912;2022-12-19T12:41:03;21.20;;;14.40;;
15256;SDS011;7731;50.720;6.912;2022-12-19T12:44:13;17.70;;;11.57;;
15256;SDS011;7731;50.720;6.912;2022-12-19T12:47:01;13.33;;;10.47;;
15256;SDS011;7731;50.720;6.912;2022-12-19T12:49:44;13.07;;;9.80;;
15256;SDS011;7731;50.720;6.912;2022-12-19T12:52:20;10.90;;;8.63;;
15256;SDS011;7731;50.720;6.912;2022-12-19T12:55:13;13.57;;;10.03;;
15256;SDS011;7731;50.720;6.912;2022-12-19T12:57:52;12.47;;;8.50;;
15256;SDS011;7731;50.720;6.912;2022-12-19T13:00:23;12.07;;;8.67;;
15256;SDS011;7731;50.720;6.912;2022-12-19T13:03:04;12.97;;;8.93;;
15256;SDS011;7731;50.720;6.912;2022-12-19T13:05:53;15.67;;;8.73;;
15256;SDS011;7731;50.720;6.912;2022-12-19T13:08:34;14.70;;;9.80;;
15256;SDS011;7731;50.720;6.912;2022-12-19T13:11:10;14.83;;;9.40;;
15256;SDS011;7731;50.720;6.912;2022-12-19T13:17:19;12.40;;;8.93;;
15256;SDS011;7731;50.720;6.912;2022-12-19T13:20:42;9.37;;;6.90;;
15256;SDS011;7731;50.720;6.912;2022-12-19T13:23:19;10.13;;;7.10;;
15256;SDS011;7731;50.720;6.912;2022-12-19T13:26:02;9.73;;;6.97;;
15256;SDS011;7731;50.720;6.912;2022-12-19T13:28:43;10.67;;;6.30;;
15256;SDS011;7731;50.720;6.912;2022-12-19T13:31:17;10.80;;;6.20;;
15256;SDS011;7731;50.720;6.912;2022-12-19T13:36:53;8.43;;;6.20;;
15256;SDS011;7731;50.720;6.912;2022-12-19T13:40:21;9.83;;;6.00;;
15256;SDS011;7731;50.720;6.912;2022-12-19T13:43:07;10.87;;;6.30;;
15256;SDS011;7731;50.720;6.912;2022-12-19T13:45:58;8.30;;;5.80;;
15256;SDS011;7731;50.720;6.912;2022-12-19T13:48:31;11.07;;;6.23;;
15256;SDS011;7731;50.720;6.912;2022-12-19T13:51:08;8.80;;;6.10;;
15256;SDS011;7731;50.720;6.912;2022-12-19T13:53:42;11.30;;;6.27;;
15256;SDS011;7731;50.720;6.912;2022-12-19T13:56:13;11.37;;;6.73;;
15256;SDS011;7731;50.720;6.912;2022-12-19T13:58:46;10.13;;;6.47;;
15256;SDS011;7731;50.720;6.912;2022-12-19T14:01:22;11.27;;;6.90;;
15256;SDS011;7731;50.720;6.912;2022-12-19T14:03:58;9.17;;;6.60;;
15256;SDS011;7731;50.720;6.912;2022-12-19T14:06:38;9.83;;;6.30;;
15256;SDS011;7731;50.720;6.912;2022-12-19T14:09:20;8.03;;;5.87;;
15256;SDS011;7731;50.720;6.912;2022-12-19T14:12:18;8.40;;;5.80;;
15256;SDS011;7731;50.720;6.912;2022-12-19T14:15:28;8.90;;;5.60;;
15256;SDS011;7731;50.720;6.912;2022-12-19T14:18:02;9.13;;;6.23;;
15256;SDS011;7731;50.720;6.912;2022-12-19T14:21:11;10.30;;;6.83;;
15256;SDS011;7731;50.720;6.912;2022-12-19T14:24:08;8.73;;;6.20;;
15256;SDS011;7731;50.720;6.912;2022-12-19T14:26:47;8.77;;;6.37;;
15256;SDS011;7731;50.720;6.912;2022-12-19T14:29:46;9.20;;;6.43;;
15256;SDS011;7731;50.720;6.912;2022-12-19T14:32:41;9.77;;;6.63;;
15256;SDS011;7731;50.720;6.912;2022-12-19T14:35:36;13.33;;;6.67;;
15256;SDS011;7731;50.720;6.912;2022-12-19T14:38:34;11.87;;;6.87;;
15256;SDS011;7731;50.720;6.912;2022-12-19T14:41:35;9.23;;;6.20;;
15256;SDS011;7731;50.720;6.912;2022-12-19T14:47:39;9.90;;;6.97;;
15256;SDS011;7731;50.720;6.912;2022-12-19T14:50:30;10.57;;;8.20;;
15256;SDS011;7731;50.720;6.912;2022-12-19T14:53:23;13.37;;;7.97;;
15256;SDS011;7731;50.720;6.912;2022-12-19T14:56:14;13.33;;;8.57;;
15256;SDS011;7731;50.720;6.912;2022-12-19T14:59:12;16.00;;;9.43;;
15256;SDS011;7731;50.720;6.912;2022-12-19T15:02:01;13.33;;;8.67;;
15256;SDS011;7731;50.720;6.912;2022-12-19T15:04:59;13.57;;;9.53;;
15256;SDS011;7731;50.720;6.912;2022-12-19T15:07:39;13.70;;;9.87;;
15256;SDS011;7731;50.720;6.912;2022-12-19T15:10:15;15.60;;;9.60;;
15256;SDS011;7731;50.720;6.912;2022-12-19T15:13:22;13.97;;;9.63;;
15256;SDS011;7731;50.720;6.912;2022-12-19T15:16:22;15.37;;;9.70;;
15256;SDS011;7731;50.720;6.912;2022-12-19T15:19:04;13.70;;;10.00;;
15256;SDS011;7731;50.720;6.912;2022-12-19T15:21:41;14.47;;;9.53;;
15256;SDS011;7731;50.720;6.912;2022-12-19T15:24:11;16.47;;;10.43;;
15256;SDS011;7731;50.720;6.912;2022-12-19T15:26:45;13.60;;;9.93;;
15256;SDS011;7731;50.720;6.912;2022-12-19T15:29:20;14.87;;;9.80;;
15256;SDS011;7731;50.720;6.912;2022-12-19T15:31:51;14.63;;;9.97;;
15256;SDS011;7731;50.720;6.912;2022-12-19T15:34:25;17.20;;;10.27;;
15256;SDS011;7731;50.720;6.912;2022-12-19T15:37:08;16.03;;;10.43;;
15256;SDS011;7731;50.720;6.912;2022-12-19T15:39:40;15.13;;;9.70;;
15256;SDS011;7731;50.720;6.912;2022-12-19T15:42:14;17.67;;;10.90;;
15256;SDS011;7731;50.720;6.912;2022-12-19T15:44:49;14.03;;;9.70;;
15256;SDS011;7731;50.720;6.912;2022-12-19T15:47:27;13.43;;;9.73;;
15256;SDS011;7731;50.720;6.912;2022-12-19T15:50:08;13.13;;;10.23;;
15256;SDS011;7731;50.720;6.912;2022-12-19T15:52:46;14.37;;;9.97;;
15256;SDS011;7731;50.720;6.912;2022-12-19T15:55:18;17.83;;;10.30;;
15256;SDS011;7731;50.720;6.912;2022-12-19T15:57:53;14.90;;;9.50;;
15256;SDS011;7731;50.720;6.912;2022-12-19T16:00:31;14.07;;;9.37;;
15256;SDS011;7731;50.720;6.912;2022-12-19T16:03:05;18.70;;;9.23;;
15256;SDS011;7731;50.720;6.912;2022-12-19T16:05:52;13.40;;;9.77;;
15256;SDS011;7731;50.720;6.912;2022-12-19T16:08:23;17.43;;;9.63;;
15256;SDS011;7731;50.720;6.912;2022-12-19T16:10:54;13.60;;;8.70;;
15256;SDS011;7731;50.720;6.912;2022-12-19T16:13:28;14.20;;;8.43;;